DEN weather

Denver International Airport
Denver, Colorado, United States

Public forecast

Using degrees Fahrenheit for public forecast. Weather courtesy of forecast.io.

METAR (pilot weather report)

Retrieved 2018/04/24 19:53 UTC (29 minutes ago):

KDEN 241953Z 02011KT 9SM SCT019 BKN029 OVC036 04/M01 A3040 RMK AO2 SNB08E50 SLP295 P0000 T00391011

TAF (pilot weather forecast)

Retrieved 2018/04/24 18:40 UTC (2 hours ago):

TAF KDEN 241739Z 2418/2524 01013G20KT P6SM VCSH SCT018 BKN025 OVC040 TEMPO 2418/2422 -SHRASN BKN017 FM242300 02010KT P6SM VCSH BKN035 BKN070 FM250200 05007KT P6SM BKN030 OVC050 FM251000 VRB04KT P6SM VCFG FEW002 SCT050 FM251700 32007KT P6SM SKC